createdAt,value
2018-12-13T00:03:47.088Z,99109.66
2018-12-13T00:08:50.759Z,99100.05
2018-12-13T00:13:54.490Z,99096.13
2018-12-13T00:18:57.892Z,99105.86
2018-12-13T00:24:01.464Z,99096.36
2018-12-13T00:29:05.335Z,99098.77
2018-12-13T00:34:08.798Z,99107.78
2018-12-13T00:39:12.304Z,99098.73
2018-12-13T00:44:15.763Z,99094.40
2018-12-13T00:49:19.241Z,99092.69
2018-12-13T00:54:22.756Z,99087.48
2018-12-13T00:59:26.254Z,99090.50
2018-12-13T01:04:29.760Z,99087.23
2018-12-13T01:09:33.164Z,99089.16
2018-12-13T01:14:36.740Z,99085.09
2018-12-13T01:19:40.312Z,99082.73
2018-12-13T01:24:43.714Z,99085.92
2018-12-13T01:29:47.244Z,99076.38
2018-12-13T01:34:50.656Z,99081.89
2018-12-13T01:39:54.231Z,99077.59
2018-12-13T01:44:57.689Z,99074.88
2018-12-13T01:50:01.272Z,99075.48
2018-12-13T01:55:05.180Z,99079.73
2018-12-13T02:00:08.975Z,99069.74
2018-12-13T02:05:12.473Z,99056.08
2018-12-13T02:10:16.136Z,99062.03
2018-12-13T02:15:19.760Z,99059.78
2018-12-13T02:20:23.681Z,99059.44
2018-12-13T02:25:27.128Z,99056.34
2018-12-13T02:30:30.744Z,99054.24
2018-12-13T02:35:34.156Z,99047.84
2018-12-13T02:40:37.995Z,99038.55
2018-12-13T02:45:41.413Z,99030.28
2018-12-13T02:50:44.905Z,99032.41
2018-12-13T02:55:48.329Z,99032.50
2018-12-13T03:00:51.964Z,99022.36
2018-12-13T03:05:55.509Z,99021.45
2018-12-13T03:10:59.090Z,98994.19
2018-12-13T03:16:02.499Z,99014.93
2018-12-13T03:21:06.024Z,99007.29
2018-12-13T03:26:09.572Z,98997.75
2018-12-13T03:31:13.126Z,98993.38
2018-12-13T03:36:16.712Z,98981.61
2018-12-13T03:41:20.286Z,98982.23
2018-12-13T03:46:23.793Z,98984.06
2018-12-13T03:51:27.314Z,98966.48
2018-12-13T03:56:30.724Z,98970.13
2018-12-13T04:01:34.178Z,98974.78
2018-12-13T04:06:37.632Z,98971.46
2018-12-13T04:11:41.228Z,98964.63
2018-12-13T04:16:44.876Z,98967.38
2018-12-13T04:21:48.269Z,98964.53
2018-12-13T04:26:51.685Z,98962.30
2018-12-13T04:31:55.821Z,98956.39
2018-12-13T04:36:59.233Z,98948.89
2018-12-13T04:42:02.728Z,98947.23
2018-12-13T04:47:06.332Z,98942.23
2018-12-13T04:52:09.728Z,98940.56
2018-12-13T04:57:13.261Z,98936.23
2018-12-13T05:02:16.696Z,98936.55
2018-12-13T05:07:20.098Z,98935.64
2018-12-13T05:12:23.512Z,98935.52
2018-12-13T05:17:27.028Z,98937.08
2018-12-13T05:22:30.428Z,98936.33
2018-12-13T05:27:33.869Z,98932.39
2018-12-13T05:32:37.539Z,98929.94
2018-12-13T05:37:41.082Z,98923.23
2018-12-13T05:42:44.480Z,98917.54
2018-12-13T05:47:48.077Z,98908.41
2018-12-13T05:52:51.684Z,98903.69
2018-12-13T05:57:55.149Z,98909.57
2018-12-13T06:02:58.644Z,98910.25
2018-12-13T06:08:02.185Z,98900.68
2018-12-13T06:13:05.581Z,98905.64
2018-12-13T06:18:09.165Z,98903.33
2018-12-13T06:23:12.677Z,98901.70
2018-12-13T06:28:16.100Z,98893.02
2018-12-13T06:33:24.766Z,98894.04
2018-12-13T06:38:25.196Z,98909.99
2018-12-13T06:43:28.596Z,98907.92
2018-12-13T06:48:32.184Z,98916.81
2018-12-13T06:53:35.811Z,98922.97
2018-12-13T06:58:39.268Z,98927.16
2018-12-13T07:03:42.796Z,98933.94
2018-12-13T07:08:46.300Z,98933.53
2018-12-13T07:13:49.708Z,98930.91
2018-12-13T07:18:53.755Z,98935.80
2018-12-13T07:23:57.313Z,98934.37
2018-12-13T07:29:00.734Z,98930.66
2018-12-13T07:34:04.412Z,98926.73
2018-12-13T07:39:09.936Z,98934.44
2018-12-13T07:44:13.420Z,98936.19
2018-12-13T07:49:16.868Z,98931.77
2018-12-13T07:54:20.321Z,98941.97
2018-12-13T07:59:23.745Z,98939.59
2018-12-13T08:04:27.172Z,98947.63
2018-12-13T08:09:30.716Z,98948.70
2018-12-13T08:14:34.188Z,98948.16
2018-12-13T08:19:37.600Z,98950.91
2018-12-13T08:24:41.148Z,98958.67
2018-12-13T08:29:46.213Z,98965.41
2018-12-13T08:34:49.822Z,98966.36
2018-12-13T08:39:53.439Z,98957.95
2018-12-13T08:44:57.670Z,98955.89
2018-12-13T08:50:01.256Z,98965.30
2018-12-13T08:55:05.248Z,98962.19
2018-12-13T09:00:09.056Z,98958.06
2018-12-13T09:05:12.625Z,98955.01
2018-12-13T09:10:16.236Z,98955.73
2018-12-13T09:15:19.926Z,98951.05
2018-12-13T09:20:23.472Z,98948.23
2018-12-13T09:25:27.036Z,98952.40
2018-12-13T09:30:30.604Z,98944.39
2018-12-13T09:35:34.147Z,98941.11
2018-12-13T09:40:37.677Z,98929.72
2018-12-13T09:45:41.178Z,98933.25
2018-12-13T09:50:44.653Z,98934.89
2018-12-13T09:55:48.176Z,98922.41
2018-12-13T10:00:51.632Z,98920.70
2018-12-13T10:05:55.050Z,98917.41
2018-12-13T10:10:58.533Z,98912.38
2018-12-13T10:16:02.023Z,98905.13
2018-12-13T10:21:05.674Z,98898.70
2018-12-13T10:26:09.148Z,98895.67
2018-12-13T10:31:12.636Z,98891.73
2018-12-13T10:36:16.321Z,98883.51
2018-12-13T10:41:19.874Z,98884.74
2018-12-13T10:46:23.438Z,98864.63
2018-12-13T10:51:27.168Z,98873.40
2018-12-13T10:56:30.604Z,98862.91
2018-12-13T11:01:39.420Z,98860.76
2018-12-13T11:06:42.948Z,98855.78
2018-12-13T11:11:46.549Z,98851.38
2018-12-13T11:16:50.080Z,98845.81
2018-12-13T11:21:54.109Z,98842.48
2018-12-13T11:27:08.388Z,98824.54
2018-12-13T11:32:12.148Z,98823.18
2018-12-13T11:37:15.711Z,98813.75
2018-12-13T11:42:19.387Z,98804.84
2018-12-13T11:47:22.921Z,98813.09
2018-12-13T11:52:26.532Z,98794.32
2018-12-13T11:57:30.145Z,98789.80
2018-12-13T12:02:33.845Z,98789.62
2018-12-13T12:07:37.476Z,98786.03
2018-12-13T12:12:41.089Z,98791.02
2018-12-13T12:17:44.856Z,98794.11
2018-12-13T12:22:48.360Z,98795.97
2018-12-13T12:27:51.809Z,98788.66
2018-12-13T12:32:56.128Z,98780.95
2018-12-13T12:38:00.090Z,98774.80
2018-12-13T12:43:03.688Z,98761.52
2018-12-13T12:48:07.114Z,98764.05
2018-12-13T12:53:10.629Z,98733.80
2018-12-13T12:58:14.249Z,98739.84
2018-12-13T13:03:17.765Z,98752.06
2018-12-13T13:08:21.268Z,98749.19
2018-12-13T13:13:24.934Z,98744.88
2018-12-13T13:18:28.533Z,98747.28
2018-12-13T13:23:32.170Z,98742.18
2018-12-13T13:28:35.640Z,98734.83
2018-12-13T13:33:39.160Z,98737.05
2018-12-13T13:38:42.965Z,98744.09
2018-12-13T13:43:46.540Z,98740.39
2018-12-13T13:48:50.039Z,98749.06
2018-12-13T13:53:53.524Z,98744.70
2018-12-13T13:58:56.943Z,98751.38
2018-12-13T14:04:00.481Z,98753.72
2018-12-13T14:09:05.273Z,98753.69
2018-12-13T14:14:08.759Z,98753.70
2018-12-13T14:19:12.314Z,98748.73
2018-12-13T14:24:15.735Z,98756.14
2018-12-13T14:29:19.151Z,98765.20
2018-12-13T14:34:22.624Z,98774.11
2018-12-13T14:39:26.087Z,98772.89
2018-12-13T14:44:29.688Z,98772.84
2018-12-13T14:49:33.263Z,98769.23
2018-12-13T14:54:36.733Z,98775.36
2018-12-13T14:59:46.868Z,98778.94
2018-12-13T15:04:45.796Z,98781.34
2018-12-13T15:09:50.987Z,98779.72
2018-12-13T15:14:54.788Z,98786.96
2018-12-13T15:19:58.358Z,98796.93
2018-12-13T15:25:01.924Z,98793.52
2018-12-13T15:30:06.704Z,98789.58
2018-12-13T15:35:10.359Z,98786.84
2018-12-13T15:40:14.047Z,98780.04
2018-12-13T15:45:17.875Z,98784.95
2018-12-13T15:50:21.317Z,98784.09
2018-12-13T15:55:24.794Z,98776.57
2018-12-13T16:00:28.447Z,98785.75
2018-12-13T16:05:31.972Z,98776.63
2018-12-13T16:10:35.433Z,98788.03
2018-12-13T16:15:39.026Z,98789.09
2018-12-13T16:20:42.561Z,98788.83
2018-12-13T16:25:46.011Z,98776.63
2018-12-13T16:30:49.459Z,98776.37
2018-12-13T16:35:52.957Z,98778.91
2018-12-13T16:40:56.418Z,98777.38
2018-12-13T16:45:59.980Z,98776.06
2018-12-13T16:51:03.545Z,98763.09
2018-12-13T16:56:07.667Z,98757.53
2018-12-13T17:01:11.189Z,98769.20
2018-12-13T17:06:14.668Z,98767.50
2018-12-13T17:11:18.089Z,98766.31
2018-12-13T17:16:21.730Z,98771.56
2018-12-13T17:21:25.252Z,98783.31
2018-12-13T17:26:28.800Z,98779.08
2018-12-13T17:31:32.255Z,98781.80
2018-12-13T17:36:35.745Z,98782.66
2018-12-13T17:41:39.508Z,98789.61
2018-12-13T17:46:43.161Z,98784.41
2018-12-13T17:51:46.999Z,98784.59
2018-12-13T17:56:50.653Z,98792.70
2018-12-13T18:01:54.331Z,98781.70
2018-12-13T18:06:57.773Z,98792.84
2018-12-13T18:12:01.205Z,98789.36
2018-12-13T18:17:05.288Z,98796.40
2018-12-13T18:22:08.933Z,98798.88
2018-12-13T18:27:12.724Z,98793.91
2018-12-13T18:32:16.222Z,98798.97
2018-12-13T18:37:19.636Z,98795.73
2018-12-13T18:42:24.128Z,98793.95
2018-12-13T18:47:27.752Z,98797.02
2018-12-13T18:52:32.444Z,98804.13
2018-12-13T18:57:35.880Z,98800.06
2018-12-13T19:02:39.356Z,98801.12
2018-12-13T19:07:42.957Z,98806.54
2018-12-13T19:12:46.509Z,98810.16
2018-12-13T19:17:50.025Z,98807.86
2018-12-13T19:22:53.741Z,98809.64
2018-12-13T19:27:57.469Z,98815.16
2018-12-13T19:33:00.885Z,98816.34
2018-12-13T19:38:04.393Z,98812.70
2018-12-13T19:43:07.988Z,98819.34
2018-12-13T19:48:11.388Z,98813.75
2018-12-13T19:53:15.144Z,98817.64
2018-12-13T19:58:18.756Z,98823.41
2018-12-13T20:03:22.165Z,98821.48
2018-12-13T20:08:25.679Z,98826.33
2018-12-13T20:13:29.304Z,98831.14
2018-12-13T20:18:32.844Z,98837.75
2018-12-13T20:23:36.406Z,98829.31
2018-12-13T20:28:39.989Z,98839.06
2018-12-13T20:33:43.964Z,98842.55
2018-12-13T20:38:47.614Z,98835.33
2018-12-13T20:43:51.351Z,98846.66
2018-12-13T20:48:56.488Z,98842.33
2018-12-13T20:53:59.971Z,98844.91
2018-12-13T20:59:04.642Z,98837.88
2018-12-13T21:04:08.287Z,98844.26
2018-12-13T21:09:12.114Z,98842.47
2018-12-13T21:14:15.859Z,98837.30
2018-12-13T21:19:19.396Z,98847.45
2018-12-13T21:24:23.020Z,98831.14
2018-12-13T21:29:26.650Z,98845.03
2018-12-13T21:34:30.188Z,98842.84
2018-12-13T21:39:33.864Z,98845.34
2018-12-13T21:44:37.716Z,98843.32
2018-12-13T21:49:41.200Z,98844.64
2018-12-13T21:54:44.701Z,98844.33
2018-12-13T21:59:48.312Z,98851.71
2018-12-13T22:04:51.901Z,98851.80
2018-12-13T22:09:55.343Z,98855.34
2018-12-13T22:15:02.557Z,98862.41
2018-12-13T22:20:05.296Z,98864.34
2018-12-13T22:25:08.958Z,98859.66
2018-12-13T22:30:13.352Z,98851.53
2018-12-13T22:35:16.868Z,98844.58
2018-12-13T22:40:20.413Z,98840.20
2018-12-13T22:45:23.892Z,98840.38
2018-12-13T22:50:27.295Z,98839.58
2018-12-13T22:55:30.708Z,98841.77
2018-12-13T23:00:34.462Z,98840.50
2018-12-13T23:05:38.068Z,98847.80
2018-12-13T23:10:41.574Z,98853.71
2018-12-13T23:15:45.080Z,98862.78
2018-12-13T23:20:48.472Z,98856.74
2018-12-13T23:25:52.000Z,98861.87
2018-12-13T23:30:55.512Z,98863.53
2018-12-13T23:35:58.928Z,98859.33
2018-12-13T23:41:02.403Z,98857.81
2018-12-13T23:46:06.221Z,98864.05
2018-12-13T23:51:09.664Z,98864.61
2018-12-13T23:56:13.320Z,98861.22
